sensor_id;sensor_type;location;lat;lon;timestamp;pressure;altitude;pressure_sealevel;temperature;humidity
76553;BME280;65395;53.168;18.156;2023-03-23T00:01:09;100197.94;;;8.42;79.48
76553;BME280;65395;53.168;18.156;2023-03-23T00:03:37;100199.20;;;8.46;79.41
76553;BME280;65395;53.168;18.156;2023-03-23T00:06:03;100198.21;;;8.45;79.26
76553;BME280;65395;53.168;18.156;2023-03-23T00:08:34;100190.86;;;8.45;79.42
76553;BME280;65395;53.168;18.156;2023-03-23T00:11:04;100191.45;;;8.44;79.18
76553;BME280;65395;53.168;18.156;2023-03-23T00:13:31;100190.35;;;8.44;79.43
76553;BME280;65395;53.168;18.156;2023-03-23T00:15:59;100196.58;;;8.45;79.41
76553;BME280;65395;53.168;18.156;2023-03-23T00:18:26;100192.96;;;8.50;79.46
76553;BME280;65395;53.168;18.156;2023-03-23T00:20:54;100194.69;;;8.58;79.23
76553;BME280;65395;53.168;18.156;2023-03-23T00:23:23;100194.20;;;8.66;79.13
76553;BME280;65395;53.168;18.156;2023-03-23T00:25:54;100194.05;;;8.75;78.89
76553;BME280;65395;53.168;18.156;2023-03-23T00:28:26;100194.41;;;8.83;78.73
76553;BME280;65395;53.168;18.156;2023-03-23T00:31:02;100194.38;;;8.89;78.54
76553;BME280;65395;53.168;18.156;2023-03-23T00:33:31;100191.05;;;8.93;78.43
76553;BME280;65395;53.168;18.156;2023-03-23T00:36:05;100188.96;;;9.00;78.31
76553;BME280;65395;53.168;18.156;2023-03-23T00:38:31;100188.65;;;9.06;78.03
76553;BME280;65395;53.168;18.156;2023-03-23T00:40:58;100187.73;;;9.12;77.99
76553;BME280;65395;53.168;18.156;2023-03-23T00:43:31;100184.83;;;9.16;77.87
76553;BME280;65395;53.168;18.156;2023-03-23T00:45:58;100182.65;;;9.21;77.67
76553;BME280;65395;53.168;18.156;2023-03-23T00:48:28;100183.20;;;9.27;77.56
76553;BME280;65395;53.168;18.156;2023-03-23T00:50:55;100174.64;;;9.32;77.52
76553;BME280;65395;53.168;18.156;2023-03-23T00:53:22;100164.16;;;9.36;77.33
76553;BME280;65395;53.168;18.156;2023-03-23T00:55:49;100159.45;;;9.41;77.24
76553;BME280;65395;53.168;18.156;2023-03-23T00:58:16;100162.06;;;9.45;77.18
76553;BME280;65395;53.168;18.156;2023-03-23T01:00:43;100158.16;;;9.46;77.16
76553;BME280;65395;53.168;18.156;2023-03-23T01:03:10;100159.49;;;9.47;77.10
76553;BME280;65395;53.168;18.156;2023-03-23T01:05:45;100156.44;;;9.47;77.00
76553;BME280;65395;53.168;18.156;2023-03-23T01:08:14;100157.35;;;9.46;77.08
76553;BME280;65395;53.168;18.156;2023-03-23T01:10:43;100158.08;;;9.44;77.05
76553;BME280;65395;53.168;18.156;2023-03-23T01:13:11;100159.88;;;9.44;77.04
76553;BME280;65395;53.168;18.156;2023-03-23T01:15:38;100153.30;;;9.44;76.88
76553;BME280;65395;53.168;18.156;2023-03-23T01:18:06;100155.48;;;9.42;76.91
76553;BME280;65395;53.168;18.156;2023-03-23T01:20:32;100154.56;;;9.41;76.99
76553;BME280;65395;53.168;18.156;2023-03-23T01:23:01;100153.93;;;9.40;76.98
76553;BME280;65395;53.168;18.156;2023-03-23T01:25:29;100151.49;;;9.39;76.94
76553;BME280;65395;53.168;18.156;2023-03-23T01:27:58;100151.06;;;9.35;77.13
76553;BME280;65395;53.168;18.156;2023-03-23T01:30:25;100151.86;;;9.32;77.19
76553;BME280;65395;53.168;18.156;2023-03-23T01:32:54;100150.31;;;9.30;77.11
76553;BME280;65395;53.168;18.156;2023-03-23T01:35:22;100149.52;;;9.29;77.06
76553;BME280;65395;53.168;18.156;2023-03-23T01:37:48;100147.98;;;9.29;76.99
76553;BME280;65395;53.168;18.156;2023-03-23T01:40:15;100141.70;;;9.26;76.93
76553;BME280;65395;53.168;18.156;2023-03-23T01:42:43;100138.84;;;9.24;76.94
76553;BME280;65395;53.168;18.156;2023-03-23T01:45:24;100133.77;;;9.22;76.98
76553;BME280;65395;53.168;18.156;2023-03-23T01:48:00;100132.10;;;9.18;77.02
76553;BME280;65395;53.168;18.156;2023-03-23T01:50:34;100130.48;;;9.13;77.02
76553;BME280;65395;53.168;18.156;2023-03-23T01:53:05;100132.05;;;9.08;77.11
76553;BME280;65395;53.168;18.156;2023-03-23T01:55:36;100126.71;;;9.00;77.21
76553;BME280;65395;53.168;18.156;2023-03-23T01:58:06;100123.08;;;8.93;77.24
76553;BME280;65395;53.168;18.156;2023-03-23T02:00:34;100121.35;;;8.86;77.21
76553;BME280;65395;53.168;18.156;2023-03-23T02:03:01;100124.89;;;8.78;77.43
76553;BME280;65395;53.168;18.156;2023-03-23T02:05:35;100122.63;;;8.71;77.54
76553;BME280;65395;53.168;18.156;2023-03-23T02:08:10;100124.88;;;8.61;77.49
76553;BME280;65395;53.168;18.156;2023-03-23T02:10:37;100128.29;;;8.50;77.61
76553;BME280;65395;53.168;18.156;2023-03-23T02:13:06;100121.58;;;8.41;77.88
76553;BME280;65395;53.168;18.156;2023-03-23T02:15:43;100115.09;;;8.34;77.96
76553;BME280;65395;53.168;18.156;2023-03-23T02:18:24;100112.98;;;8.27;78.03
76553;BME280;65395;53.168;18.156;2023-03-23T02:21:15;100106.80;;;8.19;78.01
76553;BME280;65395;53.168;18.156;2023-03-23T02:24:02;100100.19;;;8.11;78.03
76553;BME280;65395;53.168;18.156;2023-03-23T02:26:58;100081.34;;;8.03;78.09
76553;BME280;65395;53.168;18.156;2023-03-23T02:29:43;100065.83;;;7.96;78.38
76553;BME280;65395;53.168;18.156;2023-03-23T02:32:32;100075.45;;;7.87;77.97
76553;BME280;65395;53.168;18.156;2023-03-23T02:35:07;100075.05;;;7.80;78.46
76553;BME280;65395;53.168;18.156;2023-03-23T02:37:51;100078.57;;;7.76;78.61
76553;BME280;65395;53.168;18.156;2023-03-23T02:40:23;100078.77;;;7.72;78.65
76553;BME280;65395;53.168;18.156;2023-03-23T02:42:54;100080.54;;;7.69;78.70
76553;BME280;65395;53.168;18.156;2023-03-23T02:45:24;100086.02;;;7.65;78.56
76553;BME280;65395;53.168;18.156;2023-03-23T02:47:54;100079.69;;;7.60;78.87
76553;BME280;65395;53.168;18.156;2023-03-23T02:50:23;100073.73;;;7.58;78.95
76553;BME280;65395;53.168;18.156;2023-03-23T02:52:53;100073.58;;;7.57;78.94
76553;BME280;65395;53.168;18.156;2023-03-23T02:55:22;100065.46;;;7.55;78.99
76553;BME280;65395;53.168;18.156;2023-03-23T02:57:52;100064.03;;;7.52;78.73
76553;BME280;65395;53.168;18.156;2023-03-23T03:00:20;100061.69;;;7.47;78.61
76553;BME280;65395;53.168;18.156;2023-03-23T03:02:50;100057.74;;;7.42;78.98
76553;BME280;65395;53.168;18.156;2023-03-23T03:05:34;100063.14;;;7.37;79.16
76553;BME280;65395;53.168;18.156;2023-03-23T03:08:18;100061.04;;;7.31;79.20
76553;BME280;65395;53.168;18.156;2023-03-23T03:10:58;100061.15;;;7.26;79.15
76553;BME280;65395;53.168;18.156;2023-03-23T03:13:46;100068.85;;;7.22;79.25
76553;BME280;65395;53.168;18.156;2023-03-23T03:16:24;100069.77;;;7.18;79.45
76553;BME280;65395;53.168;18.156;2023-03-23T03:19:02;100070.11;;;7.16;79.40
76553;BME280;65395;53.168;18.156;2023-03-23T03:21:34;100068.83;;;7.13;79.29
76553;BME280;65395;53.168;18.156;2023-03-23T03:24:05;100069.45;;;7.07;79.35
76553;BME280;65395;53.168;18.156;2023-03-23T03:26:39;100061.80;;;7.06;79.70
76553;BME280;65395;53.168;18.156;2023-03-23T03:29:22;100061.44;;;7.07;79.45
76553;BME280;65395;53.168;18.156;2023-03-23T03:31:52;100058.34;;;7.02;79.20
76553;BME280;65395;53.168;18.156;2023-03-23T03:34:22;100062.10;;;6.96;79.42
76553;BME280;65395;53.168;18.156;2023-03-23T03:36:53;100054.66;;;6.90;79.59
76553;BME280;65395;53.168;18.156;2023-03-23T03:39:21;100057.91;;;6.89;79.70
76553;BME280;65395;53.168;18.156;2023-03-23T03:41:48;100056.80;;;6.85;79.60
76553;BME280;65395;53.168;18.156;2023-03-23T03:44:15;100043.86;;;6.78;79.81
76553;BME280;65395;53.168;18.156;2023-03-23T03:46:42;100053.39;;;6.79;79.69
76553;BME280;65395;53.168;18.156;2023-03-23T03:49:10;100047.60;;;6.75;79.74
76553;BME280;65395;53.168;18.156;2023-03-23T03:51:40;100044.39;;;6.71;79.67
76553;BME280;65395;53.168;18.156;2023-03-23T03:54:08;100046.47;;;6.67;79.70
76553;BME280;65395;53.168;18.156;2023-03-23T03:56:34;100040.71;;;6.63;79.94
76553;BME280;65395;53.168;18.156;2023-03-23T03:59:14;100036.15;;;6.61;79.72
76553;BME280;65395;53.168;18.156;2023-03-23T04:02:01;100032.11;;;6.53;79.78
76553;BME280;65395;53.168;18.156;2023-03-23T04:04:29;100036.77;;;6.47;79.84
76553;BME280;65395;53.168;18.156;2023-03-23T04:06:55;100036.86;;;6.40;80.27
76553;BME280;65395;53.168;18.156;2023-03-23T04:09:24;100035.46;;;6.38;80.64
76553;BME280;65395;53.168;18.156;2023-03-23T04:11:53;100032.27;;;6.35;80.39
76553;BME280;65395;53.168;18.156;2023-03-23T04:14:30;100029.39;;;6.31;80.59
76553;BME280;65395;53.168;18.156;2023-03-23T04:16:57;100033.23;;;6.28;80.49
76553;BME280;65395;53.168;18.156;2023-03-23T04:19:25;100029.42;;;6.24;80.37
76553;BME280;65395;53.168;18.156;2023-03-23T04:21:54;100030.81;;;6.20;80.50
76553;BME280;65395;53.168;18.156;2023-03-23T04:24:22;100031.42;;;6.15;80.70
76553;BME280;65395;53.168;18.156;2023-03-23T04:26:50;100033.10;;;6.12;80.73
76553;BME280;65395;53.168;18.156;2023-03-23T04:29:23;100032.64;;;6.10;81.12
76553;BME280;65395;53.168;18.156;2023-03-23T04:32:00;100033.73;;;6.11;80.66
76553;BME280;65395;53.168;18.156;2023-03-23T04:34:39;100034.83;;;6.11;80.88
76553;BME280;65395;53.168;18.156;2023-03-23T04:37:07;100034.14;;;6.14;81.15
76553;BME280;65395;53.168;18.156;2023-03-23T04:39:35;100029.23;;;6.20;81.05
76553;BME280;65395;53.168;18.156;2023-03-23T04:42:03;100024.04;;;6.25;80.98
76553;BME280;65395;53.168;18.156;2023-03-23T04:44:40;100018.48;;;6.31;80.70
76553;BME280;65395;53.168;18.156;2023-03-23T04:47:12;100018.09;;;6.36;80.44
76553;BME280;65395;53.168;18.156;2023-03-23T04:49:45;100019.00;;;6.42;80.48
76553;BME280;65395;53.168;18.156;2023-03-23T04:52:17;100018.69;;;6.48;80.60
76553;BME280;65395;53.168;18.156;2023-03-23T04:54:52;100015.34;;;6.54;80.60
76553;BME280;65395;53.168;18.156;2023-03-23T04:57:19;100013.27;;;6.65;80.60
76553;BME280;65395;53.168;18.156;2023-03-23T04:59:59;100010.70;;;6.73;80.50
76553;BME280;65395;53.168;18.156;2023-03-23T05:02:38;100008.24;;;6.83;80.76
76553;BME280;65395;53.168;18.156;2023-03-23T05:05:07;100002.27;;;6.94;80.49
76553;BME280;65395;53.168;18.156;2023-03-23T05:07:34;100000.89;;;7.03;80.56
76553;BME280;65395;53.168;18.156;2023-03-23T05:10:03;100005.08;;;7.13;80.71
76553;BME280;65395;53.168;18.156;2023-03-23T05:12:30;100001.45;;;7.24;80.75
76553;BME280;65395;53.168;18.156;2023-03-23T05:15:00;100003.79;;;7.33;80.18
76553;BME280;65395;53.168;18.156;2023-03-23T05:17:29;99998.10;;;7.39;80.25
76553;BME280;65395;53.168;18.156;2023-03-23T05:19:58;99985.21;;;7.46;80.37
76553;BME280;65395;53.168;18.156;2023-03-23T05:22:35;99989.20;;;7.56;80.30
76553;BME280;65395;53.168;18.156;2023-03-23T05:25:05;99989.69;;;7.63;80.03
76553;BME280;65395;53.168;18.156;2023-03-23T05:27:36;99994.78;;;7.71;80.23
76553;BME280;65395;53.168;18.156;2023-03-23T05:30:11;99994.56;;;7.81;80.09
76553;BME280;65395;53.168;18.156;2023-03-23T05:32:43;99999.91;;;7.92;80.15
76553;BME280;65395;53.168;18.156;2023-03-23T05:35:23;99998.58;;;8.05;79.90
76553;BME280;65395;53.168;18.156;2023-03-23T05:37:51;99989.79;;;8.14;79.80
76553;BME280;65395;53.168;18.156;2023-03-23T05:40:20;99989.02;;;8.25;79.67
76553;BME280;65395;53.168;18.156;2023-03-23T05:42:56;99995.59;;;8.36;79.46
76553;BME280;65395;53.168;18.156;2023-03-23T05:45:33;99988.74;;;8.44;79.44
76553;BME280;65395;53.168;18.156;2023-03-23T05:48:00;99977.43;;;8.53;79.41
76553;BME280;65395;53.168;18.156;2023-03-23T05:50:29;99967.31;;;8.60;79.34
76553;BME280;65395;53.168;18.156;2023-03-23T05:52:55;99960.67;;;8.65;79.26
76553;BME280;65395;53.168;18.156;2023-03-23T05:55:22;99958.13;;;8.66;79.42
76553;BME280;65395;53.168;18.156;2023-03-23T05:57:56;99954.31;;;8.68;79.57
76553;BME280;65395;53.168;18.156;2023-03-23T06:00:27;99957.39;;;8.72;79.52
76553;BME280;65395;53.168;18.156;2023-03-23T06:03:02;99955.61;;;8.78;79.24
76553;BME280;65395;53.168;18.156;2023-03-23T06:05:43;99947.70;;;8.88;78.89
76553;BME280;65395;53.168;18.156;2023-03-23T06:08:12;99947.62;;;8.98;78.73
76553;BME280;65395;53.168;18.156;2023-03-23T06:10:40;99947.90;;;9.08;78.60
76553;BME280;65395;53.168;18.156;2023-03-23T06:13:07;99960.14;;;9.20;78.60
76553;BME280;65395;53.168;18.156;2023-03-23T06:15:40;99959.20;;;9.36;78.23
76553;BME280;65395;53.168;18.156;2023-03-23T06:18:16;99957.65;;;9.50;78.04
76553;BME280;65395;53.168;18.156;2023-03-23T06:20:50;99954.32;;;9.64;77.64
76553;BME280;65395;53.168;18.156;2023-03-23T06:23:27;99945.62;;;9.74;77.55
76553;BME280;65395;53.168;18.156;2023-03-23T06:25:58;99935.29;;;9.85;77.41
76553;BME280;65395;53.168;18.156;2023-03-23T06:28:26;99921.33;;;9.94;77.26
76553;BME280;65395;53.168;18.156;2023-03-23T06:30:54;99928.05;;;10.02;77.03
76553;BME280;65395;53.168;18.156;2023-03-23T06:33:21;99945.11;;;10.09;76.88
76553;BME280;65395;53.168;18.156;2023-03-23T06:36:04;99951.36;;;10.20;76.55
76553;BME280;65395;53.168;18.156;2023-03-23T06:38:45;99951.19;;;10.35;76.29
76553;BME280;65395;53.168;18.156;2023-03-23T06:41:13;99951.33;;;10.46;76.02
76553;BME280;65395;53.168;18.156;2023-03-23T06:43:40;99945.89;;;10.57;75.70
76553;BME280;65395;53.168;18.156;2023-03-23T06:46:13;99940.52;;;10.67;75.43
76553;BME280;65395;53.168;18.156;2023-03-23T06:49:00;99942.04;;;10.76;75.17
76553;BME280;65395;53.168;18.156;2023-03-23T06:51:35;99938.80;;;10.87;74.94
76553;BME280;65395;53.168;18.156;2023-03-23T06:54:04;99944.89;;;10.96;74.70
76553;BME280;65395;53.168;18.156;2023-03-23T06:56:32;99947.45;;;11.04;74.45
76553;BME280;65395;53.168;18.156;2023-03-23T06:58:59;99956.55;;;11.13;74.09
76553;BME280;65395;53.168;18.156;2023-03-23T07:01:26;99955.59;;;11.21;73.84
76553;BME280;65395;53.168;18.156;2023-03-23T07:03:57;99953.88;;;11.26;73.34
76553;BME280;65395;53.168;18.156;2023-03-23T07:06:34;99950.71;;;11.29;73.27
76553;BME280;65395;53.168;18.156;2023-03-23T07:09:02;99951.35;;;11.32;73.09
76553;BME280;65395;53.168;18.156;2023-03-23T07:11:30;99950.16;;;11.32;72.61
76553;BME280;65395;53.168;18.156;2023-03-23T07:13:59;99961.40;;;11.31;72.73
76553;BME280;65395;53.168;18.156;2023-03-23T07:16:26;99962.52;;;11.30;72.45
76553;BME280;65395;53.168;18.156;2023-03-23T07:18:53;99961.91;;;11.30;72.53
76553;BME280;65395;53.168;18.156;2023-03-23T07:21:20;99956.30;;;11.31;72.10
76553;BME280;65395;53.168;18.156;2023-03-23T07:23:47;99946.33;;;11.35;71.95
76553;BME280;65395;53.168;18.156;2023-03-23T07:26:20;99938.21;;;11.44;71.90
76553;BME280;65395;53.168;18.156;2023-03-23T07:28:51;99924.77;;;11.57;71.67
76553;BME280;65395;53.168;18.156;2023-03-23T07:31:23;99926.27;;;11.75;71.08
76553;BME280;65395;53.168;18.156;2023-03-23T07:33:50;99929.54;;;11.92;70.96
76553;BME280;65395;53.168;18.156;2023-03-23T07:36:17;99929.09;;;12.13;70.59
76553;BME280;65395;53.168;18.156;2023-03-23T07:38:44;99927.67;;;12.33;69.95
76553;BME280;65395;53.168;18.156;2023-03-23T07:41:12;99932.17;;;12.55;69.81
76553;BME280;65395;53.168;18.156;2023-03-23T07:43:40;99937.50;;;12.76;69.01
76553;BME280;65395;53.168;18.156;2023-03-23T07:46:19;99935.60;;;12.97;67.88
76553;BME280;65395;53.168;18.156;2023-03-23T07:48:55;99941.60;;;13.15;67.59
76553;BME280;65395;53.168;18.156;2023-03-23T07:51:25;99939.31;;;13.31;65.96
76553;BME280;65395;53.168;18.156;2023-03-23T07:53:52;99942.77;;;13.45;64.91
76553;BME280;65395;53.168;18.156;2023-03-23T07:56:39;99937.33;;;13.57;64.29
76553;BME280;65395;53.168;18.156;2023-03-23T07:59:14;99938.82;;;13.71;64.20
76553;BME280;65395;53.168;18.156;2023-03-23T08:01:42;99939.08;;;13.84;64.36
76553;BME280;65395;53.168;18.156;2023-03-23T08:04:26;99947.20;;;13.96;63.08
76553;BME280;65395;53.168;18.156;2023-03-23T08:07:11;99956.83;;;14.06;63.13
76553;BME280;65395;53.168;18.156;2023-03-23T08:09:49;99960.02;;;14.13;61.56
76553;BME280;65395;53.168;18.156;2023-03-23T08:12:36;99957.75;;;14.17;60.55
76553;BME280;65395;53.168;18.156;2023-03-23T08:15:18;99945.65;;;14.24;61.89
76553;BME280;65395;53.168;18.156;2023-03-23T08:17:58;99951.04;;;14.33;60.95
76553;BME280;65395;53.168;18.156;2023-03-23T08:20:45;99959.20;;;14.46;60.15
76553;BME280;65395;53.168;18.156;2023-03-23T08:23:25;99967.48;;;14.56;58.62
76553;BME280;65395;53.168;18.156;2023-03-23T08:26:12;99960.79;;;14.65;60.33
76553;BME280;65395;53.168;18.156;2023-03-23T08:28:49;99958.94;;;14.70;59.25
76553;BME280;65395;53.168;18.156;2023-03-23T08:31:35;99962.05;;;14.70;58.75
76553;BME280;65395;53.168;18.156;2023-03-23T08:34:13;99965.92;;;14.64;57.91
76553;BME280;65395;53.168;18.156;2023-03-23T08:36:50;99955.16;;;14.57;59.23
76553;BME280;65395;53.168;18.156;2023-03-23T08:39:28;99963.95;;;14.59;59.21
76553;BME280;65395;53.168;18.156;2023-03-23T08:42:14;99967.84;;;14.62;58.47
76553;BME280;65395;53.168;18.156;2023-03-23T08:45:05;99962.79;;;14.68;58.56
76553;BME280;65395;53.168;18.156;2023-03-23T08:47:43;99963.94;;;14.75;57.54
76553;BME280;65395;53.168;18.156;2023-03-23T08:50:28;99953.14;;;14.80;57.85
76553;BME280;65395;53.168;18.156;2023-03-23T08:53:13;99954.31;;;14.84;59.10
76553;BME280;65395;53.168;18.156;2023-03-23T08:55:56;99960.52;;;14.95;57.90
76553;BME280;65395;53.168;18.156;2023-03-23T08:58:40;99956.23;;;14.96;57.48
76553;BME280;65395;53.168;18.156;2023-03-23T09:01:16;99954.39;;;14.99;57.57
76553;BME280;65395;53.168;18.156;2023-03-23T09:04:00;99958.70;;;15.07;57.01
76553;BME280;65395;53.168;18.156;2023-03-23T09:06:41;99957.23;;;15.08;56.60
76553;BME280;65395;53.168;18.156;2023-03-23T09:09:09;99961.31;;;15.15;56.61
76553;BME280;65395;53.168;18.156;2023-03-23T09:11:36;99971.67;;;15.23;55.83
76553;BME280;65395;53.168;18.156;2023-03-23T09:14:04;99959.13;;;15.27;55.79
76553;BME280;65395;53.168;18.156;2023-03-23T09:16:33;99956.52;;;15.34;56.01
76553;BME280;65395;53.168;18.156;2023-03-23T09:19:00;99961.27;;;15.38;55.22
76553;BME280;65395;53.168;18.156;2023-03-23T09:21:28;99973.73;;;15.40;54.68
76553;BME280;65395;53.168;18.156;2023-03-23T09:23:56;99973.14;;;15.42;54.53
76553;BME280;65395;53.168;18.156;2023-03-23T09:26:26;99976.48;;;15.48;54.74
76553;BME280;65395;53.168;18.156;2023-03-23T09:28:53;99972.40;;;15.51;54.19
76553;BME280;65395;53.168;18.156;2023-03-23T09:31:20;99975.02;;;15.52;53.97
76553;BME280;65395;53.168;18.156;2023-03-23T09:33:48;99967.13;;;15.52;54.34
76553;BME280;65395;53.168;18.156;2023-03-23T09:36:19;99962.71;;;15.56;55.11
76553;BME280;65395;53.168;18.156;2023-03-23T09:38:48;99967.95;;;15.64;55.08
76553;BME280;65395;53.168;18.156;2023-03-23T09:44:15;99969.73;;;15.76;55.24
76553;BME280;65395;53.168;18.156;2023-03-23T09:46:58;99975.44;;;15.76;54.39
76553;BME280;65395;53.168;18.156;2023-03-23T09:49:37;99974.02;;;15.69;54.21
76553;BME280;65395;53.168;18.156;2023-03-23T09:52:13;99977.89;;;15.62;54.16
76553;BME280;65395;53.168;18.156;2023-03-23T09:54:45;99970.58;;;15.58;54.84
76553;BME280;65395;53.168;18.156;2023-03-23T09:57:27;99976.19;;;15.56;54.43
76553;BME280;65395;53.168;18.156;2023-03-23T10:00:01;99978.98;;;15.50;54.07
76553;BME280;65395;53.168;18.156;2023-03-23T10:03:01;99982.92;;;15.43;54.82
76553;BME280;65395;53.168;18.156;2023-03-23T10:05:34;99984.36;;;15.33;54.81
76553;BME280;65395;53.168;18.156;2023-03-23T10:08:25;99985.04;;;15.24;54.61
76553;BME280;65395;53.168;18.156;2023-03-23T10:14:03;99990.77;;;14.99;55.32
76553;BME280;65395;53.168;18.156;2023-03-23T10:16:36;99985.92;;;14.93;55.62
76553;BME280;65395;53.168;18.156;2023-03-23T10:19:18;99986.67;;;14.88;55.78
76553;BME280;65395;53.168;18.156;2023-03-23T10:21:52;99988.20;;;14.79;55.47
76553;BME280;65395;53.168;18.156;2023-03-23T10:24:26;99984.81;;;14.73;55.90
76553;BME280;65395;53.168;18.156;2023-03-23T10:27:06;99990.55;;;14.73;56.14
76553;BME280;65395;53.168;18.156;2023-03-23T10:29:42;99996.46;;;14.75;56.14
76553;BME280;65395;53.168;18.156;2023-03-23T10:32:16;99997.20;;;14.76;56.48
76553;BME280;65395;53.168;18.156;2023-03-23T10:34:55;100003.39;;;14.78;56.44
76553;BME280;65395;53.168;18.156;2023-03-23T10:37:29;100011.23;;;14.70;57.35
76553;BME280;65395;53.168;18.156;2023-03-23T10:40:00;100002.96;;;14.61;58.12
76553;BME280;65395;53.168;18.156;2023-03-23T10:42:30;100006.14;;;14.56;57.99
76553;BME280;65395;53.168;18.156;2023-03-23T10:45:00;100010.56;;;14.48;58.96
76553;BME280;65395;53.168;18.156;2023-03-23T10:47:39;100008.59;;;14.53;59.18
76553;BME280;65395;53.168;18.156;2023-03-23T10:50:14;100017.11;;;14.51;59.21
76553;BME280;65395;53.168;18.156;2023-03-23T10:52:42;100015.64;;;14.39;59.40
76553;BME280;65395;53.168;18.156;2023-03-23T10:55:15;100017.20;;;14.25;59.86
76553;BME280;65395;53.168;18.156;2023-03-23T10:57:46;100026.48;;;14.16;60.29
76553;BME280;65395;53.168;18.156;2023-03-23T11:00:20;100028.52;;;14.09;60.44
76553;BME280;65395;53.168;18.156;2023-03-23T11:03:06;100023.99;;;14.04;60.63
76553;BME280;65395;53.168;18.156;2023-03-23T11:05:42;100024.05;;;14.03;60.90
76553;BME280;65395;53.168;18.156;2023-03-23T11:08:13;100020.34;;;14.05;61.46
76553;BME280;65395;53.168;18.156;2023-03-23T11:10:47;100019.89;;;14.10;61.91
76553;BME280;65395;53.168;18.156;2023-03-23T11:13:17;100016.85;;;14.22;62.08
76553;BME280;65395;53.168;18.156;2023-03-23T11:15:45;100018.57;;;14.37;62.36
76553;BME280;65395;53.168;18.156;2023-03-23T11:18:20;100022.25;;;14.58;61.80
76553;BME280;65395;53.168;18.156;2023-03-23T11:20:58;100027.77;;;14.81;61.48
76553;BME280;65395;53.168;18.156;2023-03-23T11:23:30;100027.86;;;14.95;61.87
76553;BME280;65395;53.168;18.156;2023-03-23T11:26:08;100025.29;;;15.09;61.39
76553;BME280;65395;53.168;18.156;2023-03-23T11:28:51;100024.77;;;15.16;61.53
76553;BME280;65395;53.168;18.156;2023-03-23T11:31:23;100026.95;;;15.32;61.12
76553;BME280;65395;53.168;18.156;2023-03-23T11:33:55;100029.79;;;15.38;60.37
76553;BME280;65395;53.168;18.156;2023-03-23T11:36:34;100024.98;;;15.30;60.31
76553;BME280;65395;53.168;18.156;2023-03-23T11:39:03;100022.45;;;15.27;60.57
76553;BME280;65395;53.168;18.156;2023-03-23T11:41:45;100020.78;;;15.31;60.28
76553;BME280;65395;53.168;18.156;2023-03-23T11:44:12;100010.81;;;15.28;60.18
76553;BME280;65395;53.168;18.156;2023-03-23T11:47:10;100012.77;;;15.35;60.40
76553;BME280;65395;53.168;18.156;2023-03-23T11:52:39;100017.34;;;15.46;59.87
76553;BME280;65395;53.168;18.156;2023-03-23T11:55:26;100016.55;;;15.50;59.94
76553;BME280;65395;53.168;18.156;2023-03-23T11:57:55;100015.39;;;15.54;59.52
76553;BME280;65395;53.168;18.156;2023-03-23T12:00:27;100012.04;;;15.53;58.85
76553;BME280;65395;53.168;18.156;2023-03-23T12:03:01;100013.16;;;15.48;59.43
76553;BME280;65395;53.168;18.156;2023-03-23T12:05:59;100014.45;;;15.49;58.86
76553;BME280;65395;53.168;18.156;2023-03-23T12:08:49;100018.17;;;15.49;58.99
76553;BME280;65395;53.168;18.156;2023-03-23T12:14:21;100013.27;;;15.36;58.64
76553;BME280;65395;53.168;18.156;2023-03-23T12:17:08;100020.02;;;15.29;58.74
76553;BME280;65395;53.168;18.156;2023-03-23T12:19:55;100011.42;;;15.21;58.96
76553;BME280;65395;53.168;18.156;2023-03-23T12:22:38;100005.04;;;15.25;59.20
76553;BME280;65395;53.168;18.156;2023-03-23T12:25:31;100014.33;;;15.36;58.88
76553;BME280;65395;53.168;18.156;2023-03-23T12:28:34;100008.45;;;15.32;59.13
76553;BME280;65395;53.168;18.156;2023-03-23T12:40:18;100001.02;;;15.53;58.55
76553;BME280;65395;53.168;18.156;2023-03-23T12:43:08;100006.15;;;15.57;58.03
76553;BME280;65395;53.168;18.156;2023-03-23T12:48:43;99999.60;;;15.40;58.78
76553;BME280;65395;53.168;18.156;2023-03-23T12:51:21;100006.59;;;15.36;58.74
76553;BME280;65395;53.168;18.156;2023-03-23T12:54:03;100006.51;;;15.26;58.91
76553;BME280;65395;53.168;18.156;2023-03-23T12:59:22;99992.38;;;15.06;59.57
76553;BME280;65395;53.168;18.156;2023-03-23T13:02:01;99995.29;;;15.03;59.27
76553;BME280;65395;53.168;18.156;2023-03-23T13:04:36;99994.14;;;14.96;59.37
76553;BME280;65395;53.168;18.156;2023-03-23T13:07:07;99994.04;;;14.91;59.40
76553;BME280;65395;53.168;18.156;2023-03-23T13:12:17;99997.42;;;14.92;59.42
76553;BME280;65395;53.168;18.156;2023-03-23T13:17:44;99987.60;;;14.84;59.21
76553;BME280;65395;53.168;18.156;2023-03-23T13:20:43;99995.45;;;14.79;59.25
76553;BME280;65395;53.168;18.156;2023-03-23T13:23:19;99993.28;;;14.77;59.20
76553;BME280;65395;53.168;18.156;2023-03-23T13:25:56;99989.98;;;14.80;58.96
76553;BME280;65395;53.168;18.156;2023-03-23T13:28:29;99989.50;;;14.84;58.64
76553;BME280;65395;53.168;18.156;2023-03-23T13:33:37;99994.16;;;14.94;58.65
76553;BME280;65395;53.168;18.156;2023-03-23T13:36:10;99990.36;;;14.96;58.58
76553;BME280;65395;53.168;18.156;2023-03-23T13:38:38;99993.75;;;15.00;58.41
76553;BME280;65395;53.168;18.156;2023-03-23T13:41:11;99992.98;;;15.02;58.35
76553;BME280;65395;53.168;18.156;2023-03-23T13:43:40;99996.00;;;15.01;58.31
76553;BME280;65395;53.168;18.156;2023-03-23T13:46:24;99996.25;;;15.00;57.91
76553;BME280;65395;53.168;18.156;2023-03-23T13:49:20;99992.22;;;15.00;58.10
76553;BME280;65395;53.168;18.156;2023-03-23T13:52:06;99993.95;;;14.99;57.83
76553;BME280;65395;53.168;18.156;2023-03-23T13:54:43;99995.34;;;14.98;57.17
76553;BME280;65395;53.168;18.156;2023-03-23T13:58:09;99993.73;;;14.95;57.09
76553;BME280;65395;53.168;18.156;2023-03-23T14:00:33;99994.11;;;14.95;57.24